createdAt,value
2023-03-11T00:16:58.814Z,23.36
2023-03-11T00:17:58.791Z,23.36
2023-03-11T00:18:58.762Z,23.36
2023-03-11T00:19:58.732Z,23.36
2023-03-11T00:20:58.702Z,23.35
2023-03-11T00:21:58.712Z,23.35
2023-03-11T00:22:58.653Z,23.36
2023-03-11T00:23:58.636Z,23.37
2023-03-11T00:24:58.608Z,23.36
2023-03-11T00:25:58.692Z,23.36
2023-03-11T00:26:58.579Z,23.36
2023-03-11T00:27:58.542Z,23.37
2023-03-11T00:28:58.524Z,23.36
2023-03-11T00:29:58.489Z,23.35
2023-03-11T00:31:58.477Z,23.34
2023-03-11T00:32:58.429Z,23.35
2023-03-11T00:33:58.417Z,23.34
2023-03-11T00:34:58.382Z,23.33
2023-03-11T00:35:58.387Z,23.35
2023-03-11T00:36:58.354Z,23.34
2023-03-11T00:37:58.321Z,23.35
2023-03-11T00:38:58.333Z,23.35
2023-03-11T00:39:58.288Z,23.33
2023-03-11T00:40:58.268Z,23.33
2023-03-11T00:41:58.249Z,23.33
2023-03-11T00:42:58.222Z,23.32
2023-03-11T00:45:58.180Z,23.31
2023-03-11T00:46:58.129Z,23.30
2023-03-11T00:47:58.113Z,23.30
2023-03-11T00:48:58.072Z,23.31
2023-03-11T00:49:58.058Z,23.32
2023-03-11T00:50:58.029Z,23.31
2023-03-11T00:51:58.011Z,23.31
2023-03-11T00:52:57.982Z,23.32
2023-03-11T00:53:57.967Z,23.31
2023-03-11T00:54:57.933Z,23.31
2023-03-11T00:55:57.916Z,23.32
2023-03-11T00:56:57.905Z,23.33
2023-03-11T00:57:57.871Z,23.30
2023-03-11T00:58:57.838Z,23.32
2023-03-11T00:59:57.808Z,23.32
2023-03-11T01:00:57.852Z,23.33
2023-03-11T01:01:57.775Z,23.32
2023-03-11T01:02:57.743Z,23.32
2023-03-11T01:03:57.721Z,23.32
2023-03-11T01:04:57.698Z,23.33
2023-03-11T01:05:57.661Z,23.31
2023-03-11T01:06:57.663Z,23.31
2023-03-11T01:07:57.617Z,23.32
2023-03-11T01:08:57.595Z,23.31
2023-03-11T01:09:57.581Z,23.32
2023-03-11T01:10:57.551Z,23.30
2023-03-11T01:11:57.499Z,23.31
2023-03-11T01:12:57.477Z,23.30
2023-03-11T01:13:57.453Z,23.31
2023-03-11T01:14:57.413Z,23.31
2023-03-11T01:15:57.427Z,23.32
2023-03-11T01:16:57.386Z,23.31
2023-03-11T01:17:57.362Z,23.31
2023-03-11T01:18:57.337Z,23.32
2023-03-11T01:19:57.330Z,23.32
2023-03-11T01:20:57.292Z,23.32
2023-03-11T01:21:57.261Z,23.33
2023-03-11T01:22:57.255Z,23.33
2023-03-11T01:23:57.241Z,23.31
2023-03-11T01:24:57.229Z,23.32
2023-03-11T01:25:57.196Z,23.31
2023-03-11T01:26:57.239Z,23.30
2023-03-11T01:27:57.138Z,23.30
2023-03-11T01:28:57.109Z,23.30
2023-03-11T01:29:57.098Z,23.29
2023-03-11T01:30:57.096Z,23.30
2023-03-11T01:31:57.050Z,23.31
2023-03-11T01:32:57.041Z,23.31
2023-03-11T01:33:57.008Z,23.31
2023-03-11T01:34:56.988Z,23.30
2023-03-11T01:35:57.058Z,23.30
2023-03-11T01:36:56.954Z,23.30
2023-03-11T01:37:56.960Z,23.31
2023-03-11T01:38:56.929Z,23.31
2023-03-11T01:39:56.903Z,23.31
2023-03-11T01:40:56.883Z,23.32
2023-03-11T01:41:56.855Z,23.32
2023-03-11T01:42:56.847Z,23.30
2023-03-11T01:43:56.837Z,23.32
2023-03-11T01:44:56.792Z,23.31
2023-03-11T01:45:56.779Z,23.31
2023-03-11T01:46:56.772Z,23.31
2023-03-11T01:47:56.749Z,23.31
2023-03-11T01:48:56.716Z,23.30
2023-03-11T01:49:56.683Z,23.30
2023-03-11T01:50:56.689Z,23.31
2023-03-11T01:51:56.673Z,23.30
2023-03-11T01:52:56.650Z,23.30
2023-03-11T01:53:56.629Z,23.31
2023-03-11T01:54:56.597Z,23.31
2023-03-11T01:55:56.577Z,23.30
2023-03-11T01:56:56.585Z,23.30
2023-03-11T01:57:56.558Z,23.30
2023-03-11T01:58:56.527Z,23.30
2023-03-11T01:59:56.505Z,23.29
2023-03-11T02:00:56.494Z,23.28
2023-03-11T02:01:56.478Z,23.29
2023-03-11T02:02:56.495Z,23.31
2023-03-11T02:03:56.469Z,23.31
2023-03-11T02:04:56.399Z,23.29
2023-03-11T02:05:56.387Z,23.28
2023-03-11T02:06:56.365Z,23.29
2023-03-11T02:07:56.382Z,23.28
2023-03-11T02:08:56.308Z,23.27
2023-03-11T02:09:56.282Z,23.28
2023-03-11T02:10:56.277Z,23.27
2023-03-11T02:11:56.243Z,23.28
2023-03-11T02:12:56.228Z,23.27
2023-03-11T02:13:56.191Z,23.27
2023-03-11T02:14:56.170Z,23.26
2023-03-11T02:15:56.193Z,23.27
2023-03-11T02:16:56.127Z,23.27
2023-03-11T02:17:56.123Z,23.26
2023-03-11T02:18:56.094Z,23.26
2023-03-11T02:19:56.064Z,23.25
2023-03-11T02:20:56.036Z,23.26
2023-03-11T02:21:56.023Z,23.26
2023-03-11T02:22:56.004Z,23.26
2023-03-11T02:23:55.954Z,23.28
2023-03-11T02:24:55.947Z,23.27
2023-03-11T02:25:55.911Z,23.26
2023-03-11T02:26:55.891Z,23.26
2023-03-11T02:27:55.914Z,23.27
2023-03-11T02:28:55.826Z,23.27
2023-03-11T02:29:55.799Z,23.26
2023-03-11T02:30:55.768Z,23.25
2023-03-11T02:31:55.784Z,23.26
2023-03-11T02:32:55.734Z,23.27
2023-03-11T02:33:55.719Z,23.26
2023-03-11T02:34:55.689Z,23.25
2023-03-11T02:35:55.723Z,23.26
2023-03-11T02:36:55.647Z,23.25
2023-03-11T02:37:55.629Z,23.26
2023-03-11T02:38:55.603Z,23.25
2023-03-11T02:39:55.567Z,23.25
2023-03-11T02:40:55.573Z,23.25
2023-03-11T02:41:55.507Z,23.26
2023-03-11T02:42:55.511Z,23.25
2023-03-11T02:43:55.478Z,23.26
2023-03-11T02:44:55.464Z,23.25
2023-03-11T02:45:55.432Z,23.25
2023-03-11T02:46:55.489Z,23.24
2023-03-11T02:47:55.401Z,23.24
2023-03-11T02:48:55.390Z,23.24
2023-03-11T02:49:55.347Z,23.25
2023-03-11T02:50:55.364Z,23.24
2023-03-11T02:51:55.336Z,23.24
2023-03-11T02:52:55.297Z,23.24
2023-03-11T02:53:55.406Z,23.24
2023-03-11T02:54:55.245Z,23.22
2023-03-11T02:55:55.242Z,23.24
2023-03-11T02:56:55.215Z,23.24
2023-03-11T02:57:55.208Z,23.24
2023-03-11T02:58:55.189Z,23.23
2023-03-11T02:59:55.154Z,23.22
2023-03-11T03:00:55.211Z,23.23
2023-03-11T03:01:55.129Z,23.23
2023-03-11T03:02:55.111Z,23.23
2023-03-11T03:03:55.103Z,23.22
2023-03-11T03:04:55.107Z,23.22
2023-03-11T03:05:55.097Z,23.22
2023-03-11T03:06:55.046Z,23.23
2023-03-11T03:07:55.010Z,23.23
2023-03-11T03:08:54.997Z,23.23
2023-03-11T03:09:55.008Z,23.22
2023-03-11T03:10:54.978Z,23.22
2023-03-11T03:11:54.972Z,23.22
2023-03-11T03:12:54.933Z,23.23
2023-03-11T03:13:54.921Z,23.22
2023-03-11T03:14:54.923Z,23.23
2023-03-11T03:15:54.869Z,23.23
2023-03-11T03:16:55.044Z,23.23
2023-03-11T03:17:54.830Z,23.23
2023-03-11T03:18:54.811Z,23.22
2023-03-11T03:19:54.812Z,23.23
2023-03-11T03:20:54.795Z,23.23
2023-03-11T03:21:54.749Z,23.23
2023-03-11T03:22:54.714Z,23.21
2023-03-11T03:23:54.703Z,23.23
2023-03-11T03:24:54.669Z,23.22
2023-03-11T03:25:54.636Z,23.21
2023-03-11T03:26:54.631Z,23.20
2023-03-11T03:27:54.607Z,23.22
2023-03-11T03:28:54.625Z,23.21
2023-03-11T03:29:54.556Z,23.21
2023-03-11T03:30:54.519Z,23.21
2023-03-11T03:31:54.500Z,23.23
2023-03-11T03:32:54.538Z,23.22
2023-03-11T03:33:54.450Z,23.21
2023-03-11T03:34:54.446Z,23.21
2023-03-11T03:35:54.424Z,23.21
2023-03-11T03:36:54.381Z,23.20
2023-03-11T03:37:54.386Z,23.19
2023-03-11T03:38:54.339Z,23.19
2023-03-11T03:39:54.325Z,23.19
2023-03-11T03:40:54.286Z,23.20
2023-03-11T03:41:54.266Z,23.21
2023-03-11T03:42:54.241Z,23.21
2023-03-11T03:43:54.238Z,23.20
2023-03-11T03:44:54.215Z,23.19
2023-03-11T03:45:54.183Z,23.20
2023-03-11T03:46:54.158Z,23.21
2023-03-11T03:47:54.120Z,23.22
2023-03-11T03:48:54.116Z,23.19
2023-03-11T03:49:54.113Z,23.19
2023-03-11T03:50:54.184Z,23.20
2023-03-11T03:51:54.100Z,23.19
2023-03-11T03:52:54.030Z,23.20
2023-03-11T03:53:54.087Z,23.21
2023-03-11T03:54:53.951Z,23.21
2023-03-11T03:55:53.917Z,23.19
2023-03-11T03:56:53.901Z,23.20
2023-03-11T03:57:53.872Z,23.19
2023-03-11T03:58:53.856Z,23.18
2023-03-11T03:59:53.851Z,23.19
2023-03-11T04:00:53.790Z,23.19
2023-03-11T04:01:53.780Z,23.18
2023-03-11T04:02:53.745Z,23.18
2023-03-11T04:03:53.712Z,23.18
2023-03-11T04:04:53.688Z,23.18
2023-03-11T04:05:53.662Z,23.18
2023-03-11T04:06:53.641Z,23.18
2023-03-11T04:07:53.607Z,23.17
2023-03-11T04:08:53.598Z,23.16
2023-03-11T04:09:53.621Z,23.17
2023-03-11T04:10:53.524Z,23.17
2023-03-11T04:11:53.533Z,23.17
2023-03-11T04:12:53.488Z,23.18
2023-03-11T04:13:53.465Z,23.18
2023-03-11T04:14:53.476Z,23.17
2023-03-11T04:15:53.461Z,23.17
2023-03-11T04:16:53.447Z,23.17
2023-03-11T04:17:53.369Z,23.19
2023-03-11T04:18:53.345Z,23.19
2023-03-11T04:19:53.344Z,23.18
2023-03-11T04:20:53.300Z,23.20
2023-03-11T04:21:53.280Z,23.18
2023-03-11T04:22:53.281Z,23.18
2023-03-11T04:23:53.247Z,23.18
2023-03-11T04:24:53.213Z,23.19
2023-03-11T04:25:53.176Z,23.19
2023-03-11T04:26:53.177Z,23.18
2023-03-11T04:27:53.132Z,23.18
2023-03-11T04:28:53.134Z,23.18
2023-03-11T04:29:53.119Z,23.16
2023-03-11T04:30:53.166Z,23.16
2023-03-11T04:31:53.057Z,23.15
2023-03-11T04:32:53.031Z,23.15
2023-03-11T04:33:52.999Z,23.16
2023-03-11T04:34:53.041Z,23.16
2023-03-11T04:35:52.982Z,23.16
2023-03-11T04:36:52.941Z,23.16
2023-03-11T04:37:52.911Z,23.17
2023-03-11T04:38:52.886Z,23.17
2023-03-11T04:39:52.872Z,23.16
2023-03-11T04:40:52.849Z,23.16
2023-03-11T04:41:52.821Z,23.17
2023-03-11T04:42:52.794Z,23.16
2023-03-11T04:43:52.773Z,23.17
2023-03-11T04:44:52.778Z,23.16
2023-03-11T04:45:52.749Z,23.17
2023-03-11T04:46:52.705Z,23.17
2023-03-11T04:47:52.682Z,23.17
2023-03-11T04:48:52.656Z,23.17
2023-03-11T04:49:52.648Z,23.18
2023-03-11T04:50:52.628Z,23.17
2023-03-11T04:51:52.598Z,23.17
2023-03-11T04:52:52.582Z,23.18
2023-03-11T04:53:52.588Z,23.17
2023-03-11T04:54:52.554Z,23.16
2023-03-11T04:55:52.523Z,23.17
2023-03-11T04:56:52.527Z,23.17
2023-03-11T04:57:52.562Z,23.18
2023-03-11T04:58:52.489Z,23.17
2023-03-11T04:59:52.466Z,23.16
2023-03-11T05:00:52.466Z,23.15
2023-03-11T05:01:52.467Z,23.16
2023-03-11T05:02:52.485Z,23.18
2023-03-11T05:04:52.495Z,23.17
2023-03-11T05:05:52.471Z,23.17
2023-03-11T05:07:52.399Z,23.17
2023-03-11T09:42:45.953Z,24.10
2023-03-11T10:07:45.148Z,24.25
2023-03-11T10:08:45.108Z,24.25
2023-03-11T10:09:45.082Z,24.25
2023-03-11T10:10:45.039Z,24.27
2023-03-11T10:11:45.016Z,24.30
2023-03-11T10:12:44.984Z,24.32
2023-03-11T10:13:44.942Z,24.34
2023-03-11T10:14:44.915Z,24.34
2023-03-11T10:15:44.891Z,24.35
2023-03-11T10:16:44.862Z,24.36
2023-03-11T10:17:44.803Z,24.38
2023-03-11T10:18:44.769Z,24.38
2023-03-11T10:19:44.738Z,24.39
2023-03-11T10:20:44.718Z,24.38
2023-03-11T10:21:44.666Z,24.39
2023-03-11T10:22:44.639Z,24.40
2023-03-11T10:23:44.637Z,24.43
2023-03-11T10:24:44.579Z,24.44
2023-03-11T10:25:44.544Z,24.46
2023-03-11T10:26:44.537Z,24.48
2023-03-11T10:27:44.485Z,24.49
2023-03-11T10:28:44.444Z,24.51
2023-03-11T10:29:44.457Z,24.52
2023-03-11T10:30:44.385Z,24.47
2023-03-11T10:31:44.370Z,24.47
2023-03-11T10:32:44.406Z,24.49
2023-03-11T10:33:46.610Z,24.53
2023-03-11T10:34:44.260Z,24.53
2023-03-11T10:35:44.238Z,24.56
2023-03-11T10:36:44.180Z,24.58
2023-03-11T10:37:49.740Z,24.59
2023-03-11T10:39:44.085Z,24.60
2023-03-11T10:40:44.049Z,24.63
2023-03-11T10:41:44.020Z,24.66
2023-03-11T10:42:43.988Z,24.68
2023-03-11T10:43:43.954Z,24.69
2023-03-11T10:44:43.925Z,24.71
2023-03-11T10:45:43.915Z,24.73
2023-03-11T10:46:43.856Z,24.73
2023-03-11T10:47:43.797Z,24.75
2023-03-11T10:48:43.754Z,24.75
2023-03-11T10:49:43.719Z,24.77
2023-03-11T10:50:43.680Z,24.78
2023-03-11T10:51:43.624Z,24.78
2023-03-11T10:52:43.607Z,24.78
2023-03-11T10:53:43.549Z,24.78
2023-03-11T10:54:43.518Z,24.78
2023-03-11T10:55:43.464Z,24.77
2023-03-11T10:56:43.442Z,24.79
2023-03-11T10:57:43.401Z,24.80
2023-03-11T10:58:43.408Z,24.79
2023-03-11T10:59:43.301Z,24.80
2023-03-11T11:00:43.281Z,24.81
2023-03-11T11:01:43.238Z,24.83
2023-03-11T11:02:43.870Z,24.83
2023-03-11T11:03:43.137Z,24.84
2023-03-11T11:04:43.109Z,24.85
2023-03-11T11:05:43.063Z,24.85
2023-03-11T11:06:43.034Z,24.84
2023-03-11T11:07:42.963Z,24.85
2023-03-11T11:08:42.930Z,24.83
2023-03-11T11:09:42.877Z,24.85
2023-03-11T11:10:42.843Z,24.87
2023-03-11T11:11:42.793Z,24.88
2023-03-11T11:12:42.749Z,24.91
2023-03-11T11:13:42.705Z,24.94
2023-03-11T11:14:42.681Z,24.95
2023-03-11T11:15:42.631Z,24.97
2023-03-11T11:16:42.651Z,24.98
2023-03-11T11:17:42.556Z,25.01
2023-03-11T11:18:42.495Z,25.03
2023-03-11T11:19:42.467Z,25.02
2023-03-11T11:20:42.417Z,25.03
2023-03-11T11:21:42.357Z,25.05
2023-03-11T11:22:42.321Z,25.06
2023-03-11T11:23:42.303Z,25.07
2023-03-11T11:24:42.250Z,25.09
2023-03-11T11:25:42.200Z,25.11
2023-03-11T11:26:42.145Z,25.12
2023-03-11T11:27:42.096Z,25.13
2023-03-11T11:28:42.052Z,25.16
2023-03-11T11:29:42.017Z,25.16
2023-03-11T11:30:41.986Z,25.17
2023-03-11T11:31:41.923Z,25.17
2023-03-11T11:32:41.900Z,25.18
2023-03-11T11:33:41.849Z,25.15
2023-03-11T11:34:41.803Z,25.15
2023-03-11T11:35:41.778Z,25.13
2023-03-11T11:36:41.810Z,25.12
2023-03-11T11:37:41.673Z,25.09
2023-03-11T11:38:41.618Z,25.08
2023-03-11T11:39:41.568Z,25.07
2023-03-11T11:40:41.550Z,25.11
2023-03-11T11:41:41.508Z,25.09
2023-03-11T11:42:41.489Z,25.09
2023-03-11T11:43:41.414Z,25.08
2023-03-11T11:44:41.347Z,25.10
2023-03-11T11:45:41.313Z,25.11
2023-03-11T11:46:41.271Z,25.11
2023-03-11T11:47:41.217Z,25.11
2023-03-11T11:48:41.205Z,25.10
2023-03-11T11:49:41.124Z,25.11
2023-03-11T11:50:41.094Z,25.13
2023-03-11T11:51:41.052Z,25.11
2023-03-11T11:52:40.989Z,25.09
2023-03-11T11:53:40.955Z,25.08
2023-03-11T11:54:40.890Z,25.06
2023-03-11T11:55:40.832Z,25.07
2023-03-11T11:56:40.819Z,25.08
2023-03-11T11:57:40.756Z,25.06
2023-03-11T11:58:40.692Z,25.07
2023-03-11T11:59:40.645Z,25.07
2023-03-11T12:00:40.624Z,25.04
2023-03-11T12:01:40.588Z,25.03
2023-03-11T12:02:40.528Z,25.06
2023-03-11T12:03:40.545Z,25.09
2023-03-11T12:04:40.454Z,25.07
2023-03-11T12:05:40.451Z,25.07
2023-03-11T12:06:40.365Z,25.09
2023-03-11T12:07:40.311Z,25.09
2023-03-11T12:08:40.286Z,25.07
2023-03-11T12:09:40.231Z,25.07
2023-03-11T12:10:40.197Z,25.09
2023-03-11T12:11:41.924Z,25.09
2023-03-11T12:12:40.109Z,25.09
2023-03-11T12:13:40.064Z,25.07
2023-03-11T12:14:40.026Z,25.06
2023-03-11T12:15:40.023Z,25.05
2023-03-11T12:16:39.940Z,25.07
2023-03-11T12:17:39.902Z,25.08
2023-03-11T12:18:39.875Z,25.12
2023-03-11T12:19:39.830Z,25.14
2023-03-11T12:20:39.770Z,25.15
2023-03-11T12:21:39.737Z,25.16
2023-03-11T12:22:39.683Z,25.19
2023-03-11T12:23:39.642Z,25.21
2023-03-11T12:24:39.607Z,25.25
2023-03-11T12:25:39.587Z,25.26
2023-03-11T12:26:39.535Z,25.28
2023-03-11T12:27:39.475Z,25.28
2023-03-11T12:28:39.448Z,25.28
2023-03-11T12:29:39.404Z,25.30
2023-03-11T12:30:39.376Z,25.31
2023-03-11T12:31:39.509Z,25.31
2023-03-11T12:32:39.310Z,25.33
2023-03-11T12:33:39.241Z,25.35
2023-03-11T12:34:39.205Z,25.37
2023-03-11T12:35:39.188Z,25.38
2023-03-11T12:36:39.193Z,25.36
2023-03-11T12:37:39.064Z,25.37
2023-03-11T12:38:39.027Z,25.39
2023-03-11T12:39:38.985Z,25.38
2023-03-11T12:40:38.930Z,25.38
2023-03-11T12:41:38.938Z,25.38
2023-03-11T12:42:38.858Z,25.38
2023-03-11T12:43:38.795Z,25.41
2023-03-11T12:44:38.767Z,25.43
2023-03-11T12:45:38.700Z,25.41
2023-03-11T12:46:38.712Z,25.41
2023-03-11T12:47:38.623Z,25.44
2023-03-11T12:48:38.555Z,25.43
2023-03-11T12:49:38.525Z,25.42
2023-03-11T12:50:38.497Z,25.43
2023-03-11T12:51:38.421Z,25.41
2023-03-11T12:52:38.443Z,25.43
2023-03-11T12:53:38.329Z,25.41
2023-03-11T12:54:38.306Z,25.42
2023-03-11T12:55:38.267Z,25.40
2023-03-11T12:56:38.195Z,25.37
2023-03-11T12:57:38.207Z,25.35
2023-03-11T12:58:38.138Z,25.36
2023-03-11T12:59:38.089Z,25.39
2023-03-11T13:00:38.061Z,25.41
2023-03-11T13:01:38.015Z,25.42
2023-03-11T13:02:38.021Z,25.44
2023-03-11T13:03:37.933Z,25.46
2023-03-11T13:04:37.834Z,25.47
2023-03-11T13:05:37.798Z,25.46
2023-03-11T13:06:37.776Z,25.46
2023-03-11T13:07:37.741Z,25.42
2023-03-11T13:08:37.659Z,25.41
2023-03-11T13:09:37.617Z,25.42
2023-03-11T13:10:37.542Z,25.39
2023-03-11T13:11:37.510Z,25.40
2023-03-11T13:12:37.477Z,25.41
2023-03-11T13:13:37.413Z,25.40
2023-03-11T13:14:37.360Z,25.40
2023-03-11T13:15:37.322Z,25.43
2023-03-11T13:16:37.374Z,25.45
2023-03-11T13:17:37.294Z,25.45
2023-03-11T13:18:37.179Z,25.46
2023-03-11T13:19:37.124Z,25.46
2023-03-11T13:20:37.098Z,25.45
2023-03-11T13:21:37.026Z,25.45
2023-03-11T13:22:36.991Z,25.43
2023-03-11T13:23:36.954Z,25.43
2023-03-11T13:24:36.906Z,25.45
2023-03-11T13:25:36.913Z,25.47
2023-03-11T13:26:36.803Z,25.48
2023-03-11T13:27:36.778Z,25.48
2023-03-11T13:28:36.706Z,25.48
2023-03-11T13:29:36.701Z,25.50
2023-03-11T13:30:36.621Z,25.50
2023-03-11T13:31:36.597Z,25.51
2023-03-11T13:32:36.555Z,25.51
2023-03-11T13:33:36.462Z,25.53
2023-03-11T13:34:36.436Z,25.55
2023-03-11T13:35:36.427Z,25.53
2023-03-11T13:36:36.336Z,25.53
2023-03-11T13:37:36.298Z,25.54
2023-03-11T13:38:36.236Z,25.55
2023-03-11T13:39:36.195Z,25.56
2023-03-11T13:40:36.155Z,25.54
2023-03-11T13:41:36.094Z,25.55
2023-03-11T13:42:36.074Z,25.55
2023-03-11T13:43:36.015Z,25.58
2023-03-11T13:44:35.936Z,25.56
2023-03-11T13:45:35.960Z,25.59
2023-03-11T13:46:35.857Z,25.59
2023-03-11T13:47:35.819Z,25.58
2023-03-11T13:48:37.517Z,25.58
2023-03-11T13:49:35.699Z,25.55
2023-03-11T13:50:35.673Z,25.54
2023-03-11T13:51:35.609Z,25.52
2023-03-11T13:52:35.613Z,25.51
2023-03-11T13:53:35.534Z,25.54
2023-03-11T13:54:35.475Z,25.53
2023-03-11T13:55:35.445Z,25.50
2023-03-11T13:56:35.384Z,25.49
2023-03-11T13:57:35.339Z,25.48
2023-03-11T13:58:35.307Z,25.48
2023-03-11T13:59:35.258Z,25.49
2023-03-11T14:00:35.207Z,25.50
2023-03-11T14:01:35.149Z,25.49
2023-03-11T14:02:35.105Z,25.49
2023-03-11T14:03:35.048Z,25.50
2023-03-11T14:04:35.034Z,25.52
2023-03-11T14:05:34.989Z,25.52
2023-03-11T14:06:34.901Z,25.53
2023-03-11T14:07:34.883Z,25.55
2023-03-11T14:08:34.818Z,25.56
2023-03-11T14:09:34.756Z,25.55
2023-03-11T14:10:34.718Z,25.55
2023-03-11T14:11:34.672Z,25.55
2023-03-11T14:12:34.619Z,25.55
2023-03-11T14:13:34.581Z,25.56
2023-03-11T14:14:34.518Z,25.54
2023-03-11T14:15:34.470Z,25.52
2023-03-11T14:16:34.443Z,25.51
2023-03-11T14:17:34.378Z,25.51
2023-03-11T14:18:34.333Z,25.52
2023-03-11T14:19:34.274Z,25.50
2023-03-11T14:20:34.253Z,25.48
2023-03-11T14:21:34.153Z,25.47
2023-03-11T14:22:34.121Z,25.48
2023-03-11T14:23:34.087Z,25.47
2023-03-11T14:24:34.015Z,25.48
2023-03-11T14:25:33.948Z,25.49
2023-03-11T14:26:33.903Z,25.47
2023-03-11T14:27:33.864Z,25.46
2023-03-11T14:28:33.810Z,25.47
2023-03-11T14:29:33.755Z,25.46
2023-03-11T14:30:33.748Z,25.47
2023-03-11T14:31:33.722Z,25.47
2023-03-11T14:32:33.640Z,25.45
2023-03-11T14:33:33.588Z,25.43
2023-03-11T14:34:33.560Z,25.41
2023-03-11T14:35:33.453Z,25.39
2023-03-11T14:36:33.391Z,25.39
2023-03-11T14:37:33.334Z,25.40
2023-03-11T14:38:33.345Z,25.40
2023-03-11T14:39:33.264Z,25.41
2023-03-11T14:40:33.182Z,25.42
2023-03-11T14:41:33.148Z,25.39
2023-03-11T14:42:33.088Z,25.38
2023-03-11T14:43:33.058Z,25.38
2023-03-11T14:44:32.983Z,25.38
2023-03-11T14:45:33.106Z,25.37
2023-03-11T14:46:32.921Z,25.37
2023-03-11T14:47:32.843Z,25.38
2023-03-11T14:48:32.781Z,25.37
2023-03-11T14:49:32.742Z,25.36
2023-03-11T14:50:32.688Z,25.36
2023-03-11T14:51:32.628Z,25.34
2023-03-11T14:52:32.581Z,25.34
2023-03-11T14:53:32.531Z,25.36
2023-03-11T14:54:32.517Z,25.34
2023-03-11T14:55:32.437Z,25.35
2023-03-11T15:29:30.761Z,25.12
2023-03-11T15:30:30.746Z,25.12
2023-03-11T15:31:30.642Z,25.14
2023-03-11T15:32:30.579Z,25.10
2023-03-11T15:33:30.513Z,25.10
2023-03-11T15:34:30.466Z,25.11
2023-03-11T15:35:30.429Z,25.10
2023-03-11T15:36:30.354Z,25.10
2023-03-11T15:37:30.287Z,25.09
2023-03-11T15:38:30.234Z,25.07
2023-03-11T15:39:30.241Z,25.07
2023-03-11T15:40:44.026Z,25.07
2023-03-11T15:41:31.073Z,25.03
2023-03-11T15:42:30.018Z,25.03
2023-03-11T15:43:29.986Z,25.03
2023-03-11T15:44:29.972Z,25.03
2023-03-11T15:45:29.873Z,25.02
2023-03-11T15:46:29.894Z,25.02
2023-03-11T15:47:29.783Z,25.02
2023-03-11T15:48:29.835Z,25.01
2023-03-11T15:49:29.689Z,25.00
2023-03-11T15:50:40.318Z,24.99
2023-03-11T15:51:30.570Z,24.97
2023-03-11T15:52:29.542Z,24.95
2023-03-11T15:53:29.470Z,24.94
2023-03-11T15:54:29.458Z,24.94
2023-03-11T15:55:29.372Z,24.93
2023-03-11T15:56:29.322Z,24.91
2023-03-11T15:57:29.273Z,24.88
2023-03-11T15:58:29.231Z,24.86
2023-03-11T15:59:29.178Z,24.81
2023-03-11T16:00:29.122Z,24.77
2023-03-11T16:01:29.082Z,24.75
2023-03-11T16:02:29.077Z,24.75
2023-03-11T16:03:31.290Z,24.74
2023-03-11T16:04:29.026Z,24.74
2023-03-11T16:05:28.901Z,24.75
2023-03-11T16:06:28.860Z,24.74
2023-03-11T16:07:39.278Z,24.70
2023-03-11T16:08:29.765Z,24.67
2023-03-11T16:09:28.717Z,24.64
2023-03-11T16:10:28.695Z,24.66
2023-03-11T16:11:28.625Z,24.63
2023-03-11T16:12:28.589Z,24.65
2023-03-11T16:13:28.526Z,24.64
2023-03-11T16:14:28.482Z,24.62
2023-03-11T16:15:28.739Z,24.61
2023-03-11T16:16:28.401Z,24.59
2023-03-11T16:17:39.575Z,24.58
2023-03-11T16:19:28.246Z,24.58
2023-03-11T16:20:28.212Z,24.57
2023-03-11T16:21:28.174Z,24.58
2023-03-11T16:22:28.118Z,24.59
2023-03-11T16:23:28.746Z,24.59
2023-03-11T16:24:28.017Z,24.59
2023-03-11T16:25:27.969Z,24.58
2023-03-11T16:26:27.935Z,24.55
2023-03-11T16:27:27.901Z,24.51
2023-03-11T16:28:27.850Z,24.51
2023-03-11T16:29:27.846Z,24.49
2023-03-11T16:30:27.806Z,24.50
2023-03-11T16:31:27.806Z,24.45
2023-03-11T16:32:27.755Z,24.46
2023-03-11T16:33:27.658Z,24.46
2023-03-11T16:34:27.686Z,24.48
2023-03-11T16:35:27.636Z,24.46
2023-03-11T18:17:23.559Z,24.22
2023-03-11T18:18:23.508Z,24.21
2023-03-11T18:19:23.467Z,24.21
2023-03-11T18:20:23.439Z,24.21
2023-03-11T18:21:23.405Z,24.20
2023-03-11T18:22:23.402Z,24.21
2023-03-11T18:23:23.353Z,24.20
2023-03-11T18:24:23.314Z,24.20
2023-03-11T18:25:23.291Z,24.21
2023-03-11T18:26:23.395Z,24.21
2023-03-11T18:27:23.220Z,24.21
2023-03-11T18:28:23.166Z,24.19
2023-03-11T18:29:24.370Z,24.20
2023-03-11T18:30:23.105Z,24.20
2023-03-11T18:31:23.125Z,24.19
2023-03-11T18:32:23.093Z,24.19
2023-03-11T18:33:23.001Z,24.16
2023-03-11T18:34:22.974Z,24.17
2023-03-11T18:35:22.933Z,24.17
2023-03-11T18:36:22.900Z,24.15
2023-03-11T18:37:22.910Z,24.14
2023-03-11T18:38:22.886Z,24.16
2023-03-11T18:39:22.801Z,24.14
2023-03-11T18:40:22.762Z,24.15
2023-03-11T18:41:22.717Z,24.15
2023-03-11T18:42:22.695Z,24.13
2023-03-11T18:43:22.647Z,24.13
2023-03-11T18:44:22.642Z,24.14
2023-03-11T18:45:22.585Z,24.13
2023-03-11T18:46:22.678Z,24.13
2023-03-11T18:47:22.520Z,24.13
2023-03-11T18:48:22.488Z,24.14
2023-03-11T18:49:22.454Z,24.13
2023-03-11T18:50:22.430Z,24.13
2023-03-11T18:51:22.456Z,24.13
2023-03-11T20:17:19.454Z,23.91
2023-03-11T20:18:19.377Z,23.91
2023-03-11T20:19:19.342Z,23.91
2023-03-11T20:20:19.259Z,23.91
2023-03-11T20:21:19.201Z,23.91
2023-03-11T20:22:19.292Z,23.92
2023-03-11T20:23:19.135Z,23.91
2023-03-11T20:24:19.110Z,23.92
2023-03-11T20:25:19.111Z,23.91
2023-03-11T20:26:19.037Z,23.91
2023-03-11T20:27:18.961Z,23.92
2023-03-11T20:28:18.927Z,23.90
2023-03-11T20:29:18.930Z,23.89
2023-03-11T20:30:18.893Z,23.91
2023-03-11T20:31:18.857Z,23.90
2023-03-11T20:32:18.863Z,23.90
2023-03-11T20:33:18.777Z,23.90
2023-03-11T20:34:18.801Z,23.90
2023-03-11T20:35:18.645Z,23.89
2023-03-11T20:36:18.754Z,23.89
2023-03-11T20:37:18.584Z,23.89
2023-03-11T20:38:18.586Z,23.86
2023-03-11T20:39:18.505Z,23.87
2023-03-11T20:40:18.491Z,23.88
2023-03-11T20:41:18.422Z,23.88
2023-03-11T20:42:18.387Z,23.88
2023-03-11T20:43:18.348Z,23.89
2023-03-11T20:44:18.313Z,23.88
2023-03-11T20:45:18.302Z,23.88
2023-03-11T20:46:18.368Z,23.88
2023-03-11T20:47:18.314Z,23.89
2023-03-11T20:48:18.177Z,23.88
2023-03-11T20:49:18.147Z,23.89
2023-03-11T20:50:18.134Z,23.88
2023-03-11T20:51:18.141Z,23.87
2023-03-11T20:52:18.116Z,23.88
2023-03-11T20:53:17.996Z,23.87
2023-03-11T20:54:17.963Z,23.87
2023-03-11T20:55:18.044Z,23.86
2023-03-11T20:56:17.970Z,23.86
2023-03-11T20:57:17.866Z,23.86
2023-03-11T20:58:17.835Z,23.86
2023-03-11T20:59:17.807Z,23.85
2023-03-11T21:00:17.751Z,23.85
2023-03-11T21:01:17.827Z,23.86
2023-03-11T21:02:17.688Z,23.86
2023-03-11T21:03:17.785Z,23.86
2023-03-11T21:04:17.626Z,23.84
2023-03-11T21:05:17.617Z,23.85
2023-03-11T21:06:17.556Z,23.83
2023-03-11T21:07:17.595Z,23.84
2023-03-11T21:08:17.520Z,23.83
2023-03-11T21:09:17.654Z,23.82
2023-03-11T21:10:17.457Z,23.82
2023-03-11T21:11:17.506Z,23.84
2023-03-11T21:12:17.421Z,23.83
2023-03-11T21:13:17.438Z,23.83
2023-03-11T21:14:17.286Z,23.83
2023-03-11T21:15:17.278Z,23.83
2023-03-11T21:16:17.297Z,23.83
2023-03-11T21:17:17.482Z,23.83
2023-03-11T21:18:17.207Z,23.84
2023-03-11T21:19:17.154Z,23.83
2023-03-11T21:20:17.079Z,23.83
2023-03-11T21:21:17.103Z,23.83
2023-03-11T21:22:17.091Z,23.83
2023-03-11T21:23:16.988Z,23.85
2023-03-11T21:24:17.042Z,23.83
2023-03-11T21:25:17.156Z,23.83
2023-03-11T21:26:17.015Z,23.82
2023-03-11T21:27:16.974Z,23.82
2023-03-11T21:28:16.811Z,23.82
2023-03-11T21:29:16.787Z,23.82
2023-03-11T21:30:16.835Z,23.82
2023-03-11T21:31:16.738Z,23.82
2023-03-11T21:32:16.798Z,23.81
2023-03-11T21:33:16.707Z,23.82
2023-03-11T21:34:16.673Z,23.81
2023-03-11T21:35:16.660Z,23.80
2023-03-11T21:36:16.660Z,23.80
2023-03-11T21:37:16.547Z,23.82
2023-03-11T21:38:16.564Z,23.82
2023-03-11T21:39:16.469Z,23.80
2023-03-11T21:40:16.576Z,23.81
2023-03-11T21:41:16.446Z,23.81
2023-03-11T21:42:16.589Z,23.81
2023-03-11T21:43:16.356Z,23.82
2023-03-11T21:44:16.296Z,23.82
2023-03-11T21:45:16.307Z,23.82
2023-03-11T21:46:16.329Z,23.82
2023-03-11T21:47:16.344Z,23.80
2023-03-11T21:48:16.224Z,23.80
2023-03-11T21:49:16.141Z,23.80
2023-03-11T21:50:16.234Z,23.80
2023-03-11T21:51:16.216Z,23.80
2023-03-11T21:52:16.065Z,23.80